Time;durP1;ratioP1;P1;durP2;ratioP2;P2;SDS_P1;SDS_P2;PMS_P1;PMS_P2;Temp;Humidity;BMP_temperature;BMP_pressure;BME280_temperature;BME280_humidity;BME280_pressure;Samples;Min_cycle;Max_cycle;Signal;HPM_P1;HPM_P2
2022/01/16 00:01:17;;;;;;;82.07;32.00;;;;;;;;;;5077727;28;20094;-68
2022/01/16 00:06:27;;;;;;;83.95;30.00;;;;;;;;;;5081061;28;20509;-67
2022/01/16 00:08:53;;;;;;;81.68;31.00;;;;;;;;;;5083962;28;20044;-67
2022/01/16 00:11:19;;;;;;;80.88;31.63;;;;;;;;;;5079816;28;20036;-67
2022/01/16 00:13:45;;;;;;;94.63;38.55;;;;;;;;;;5082452;28;20032;-67
2022/01/16 00:16:13;;;;;;;90.28;34.33;;;;;;;;;;5092340;28;20068;-69
2022/01/16 00:18:49;;;;;;;75.65;28.45;;;;;;;;;;5086549;28;20097;-67
2022/01/16 00:21:15;;;;;;;77.15;30.08;;;;;;;;;;5078778;28;20036;-67
2022/01/16 00:23:41;;;;;;;76.85;27.90;;;;;;;;;;5091339;28;20448;-67
2022/01/16 00:26:07;;;;;;;69.93;29.17;;;;;;;;;;5091741;28;20036;-67
2022/01/16 00:28:33;;;;;;;83.68;31.85;;;;;;;;;;5091951;28;20504;-67
2022/01/16 00:30:59;;;;;;;71.15;29.35;;;;;;;;;;5085989;28;20033;-67
2022/01/16 00:33:25;;;;;;;77.95;30.10;;;;;;;;;;5087731;28;20118;-67
2022/01/16 00:35:51;;;;;;;75.90;29.40;;;;;;;;;;5091016;28;20047;-67
2022/01/16 00:38:17;;;;;;;78.85;30.60;;;;;;;;;;5084104;28;20036;-67
2022/01/16 00:40:43;;;;;;;73.53;28.60;;;;;;;;;;5085469;28;20512;-67
2022/01/16 00:43:09;;;;;;;75.15;29.40;;;;;;;;;;5078609;28;20036;-67
2022/01/16 00:45:35;;;;;;;71.75;28.83;;;;;;;;;;5085186;28;20147;-67
2022/01/16 00:48:05;;;;;;;76.75;29.40;;;;;;;;;;5079703;28;20036;-67
2022/01/16 00:50:31;;;;;;;72.80;27.67;;;;;;;;;;5088358;28;20059;-67
2022/01/16 00:52:57;;;;;;;76.60;29.42;;;;;;;;;;5079308;28;20402;-67
2022/01/16 00:55:23;;;;;;;75.32;28.63;;;;;;;;;;5078339;28;20374;-67
2022/01/16 00:57:49;;;;;;;74.55;29.00;;;;;;;;;;5084933;22;20083;-69
2022/01/16 01:00:16;;;;;;;71.57;27.88;;;;;;;;;;5042063;28;20514;-69
2022/01/16 01:02:42;;;;;;;77.43;30.95;;;;;;;;;;5049740;28;20119;-69
2022/01/16 01:05:08;;;;;;;100.40;40.60;;;;;;;;;;5051071;28;20111;-70
2022/01/16 01:07:35;;;;;;;85.93;35.28;;;;;;;;;;5050739;28;20037;-70
2022/01/16 01:10:01;;;;;;;85.07;31.92;;;;;;;;;;5049477;28;20043;-70
2022/01/16 01:12:40;;;;;;;86.57;35.20;;;;;;;;;;5048098;28;20399;-70
2022/01/16 01:15:08;;;;;;;96.55;38.72;;;;;;;;;;5035863;28;20040;-70
2022/01/16 01:17:42;;;;;;;92.35;34.95;;;;;;;;;;5050773;28;20041;-69
2022/01/16 01:20:09;;;;;;;100.43;42.88;;;;;;;;;;5047971;28;20147;-70
2022/01/16 01:22:35;;;;;;;89.07;34.17;;;;;;;;;;5051067;28;20156;-70
2022/01/16 01:25:01;;;;;;;84.75;31.70;;;;;;;;;;5048385;28;20126;-70
2022/01/16 01:27:31;;;;;;;86.25;29.52;;;;;;;;;;5031420;28;20419;-70
2022/01/16 01:30:06;;;;;;;88.78;34.83;;;;;;;;;;5034016;28;20037;-69
2022/01/16 01:32:33;;;;;;;86.72;31.38;;;;;;;;;;5044136;28;20028;-69
2022/01/16 01:35:00;;;;;;;77.82;30.23;;;;;;;;;;5050424;28;20785;-70
2022/01/16 01:37:26;;;;;;;120.10;52.50;;;;;;;;;;5051066;28;20052;-70
2022/01/16 01:39:52;;;;;;;77.93;29.85;;;;;;;;;;5050431;28;20123;-69
2022/01/16 01:42:18;;;;;;;97.88;41.28;;;;;;;;;;5053573;28;20483;-70
2022/01/16 01:52:59;;;;;;;79.35;29.77;;;;;;;;;;5053963;28;20517;-69
2022/01/16 01:55:26;;;;;;;75.82;29.38;;;;;;;;;;5054949;28;20124;-70
2022/01/16 01:57:52;;;;;;;78.65;28.73;;;;;;;;;;5054582;28;20047;-70
2022/01/16 02:00:19;;;;;;;78.93;29.02;;;;;;;;;;5055709;28;20439;-70
2022/01/16 02:03:04;;;;;;;78.40;30.15;;;;;;;;;;5055878;28;20445;-69
2022/01/16 02:05:31;;;;;;;82.65;31.98;;;;;;;;;;5046097;28;20048;-70
2022/01/16 02:07:57;;;;;;;75.75;27.48;;;;;;;;;;5054444;28;20041;-70
2022/01/16 02:10:23;;;;;;;78.63;28.15;;;;;;;;;;5051609;28;20133;-69
2022/01/16 02:12:56;;;;;;;80.95;28.63;;;;;;;;;;5042928;28;20124;-70
2022/01/16 02:32:01;;;;;;;77.03;27.75;;;;;;;;;;5045415;28;20456;-69
2022/01/16 02:34:38;;;;;;;90.88;29.63;;;;;;;;;;5054565;28;20079;-69
2022/01/16 02:37:11;;;;;;;88.82;28.17;;;;;;;;;;5054222;28;20041;-69
2022/01/16 02:39:40;;;;;;;88.75;30.08;;;;;;;;;;5053741;28;20076;-69
2022/01/16 02:42:07;;;;;;;96.72;31.30;;;;;;;;;;5050535;28;20034;-69
2022/01/16 02:44:48;;;;;;;99.85;32.38;;;;;;;;;;5054338;28;20043;-69
2022/01/16 02:47:17;;;;;;;92.10;30.77;;;;;;;;;;5052672;28;20049;-69
2022/01/16 02:49:47;;;;;;;91.20;30.15;;;;;;;;;;5051107;28;20112;-69
2022/01/16 02:52:13;;;;;;;97.10;30.77;;;;;;;;;;5051300;28;20073;-69
2022/01/16 02:54:40;;;;;;;96.32;32.28;;;;;;;;;;5036225;28;20034;-69
2022/01/16 02:57:11;;;;;;;95.07;30.10;;;;;;;;;;5052451;28;20040;-69
2022/01/16 02:59:38;;;;;;;88.28;29.15;;;;;;;;;;5049567;28;20044;-69
2022/01/16 03:02:05;;;;;;;100.28;33.20;;;;;;;;;;5050136;28;20054;-69
2022/01/16 03:04:32;;;;;;;93.32;31.08;;;;;;;;;;5041070;28;20102;-69
2022/01/16 03:07:02;;;;;;;102.80;32.50;;;;;;;;;;5052638;28;20053;-69
2022/01/16 03:09:40;;;;;;;96.53;29.10;;;;;;;;;;5051069;28;20036;-69
2022/01/16 03:12:09;;;;;;;106.72;32.42;;;;;;;;;;5053782;28;20041;-69
2022/01/16 03:14:35;;;;;;;105.00;32.83;;;;;;;;;;5053634;28;20097;-69
2022/01/16 03:17:01;;;;;;;88.78;29.67;;;;;;;;;;5052719;28;20041;-69
2022/01/16 03:22:12;;;;;;;101.90;31.75;;;;;;;;;;5050835;28;20056;-70
2022/01/16 03:24:39;;;;;;;92.60;30.17;;;;;;;;;;5042093;28;20040;-69
2022/01/16 03:27:09;;;;;;;97.43;34.13;;;;;;;;;;5053214;28;20099;-69
2022/01/16 03:29:36;;;;;;;111.32;33.47;;;;;;;;;;5051718;28;20510;-69
2022/01/16 03:32:04;;;;;;;112.32;33.90;;;;;;;;;;5051409;28;20056;-69
2022/01/16 03:34:30;;;;;;;111.10;34.45;;;;;;;;;;5053246;28;20033;-69
2022/01/16 03:36:56;;;;;;;105.25;32.80;;;;;;;;;;5052857;28;20487;-69
2022/01/16 03:39:22;;;;;;;108.65;34.33;;;;;;;;;;5051678;28;20040;-69
2022/01/16 03:41:48;;;;;;;111.40;34.63;;;;;;;;;;5051933;28;20041;-69
2022/01/16 03:44:14;;;;;;;103.10;30.73;;;;;;;;;;5037475;28;20040;-69
2022/01/16 03:46:41;;;;;;;120.15;35.67;;;;;;;;;;5051754;28;20052;-69
2022/01/16 03:49:09;;;;;;;116.95;35.17;;;;;;;;;;5052092;28;20167;-69
2022/01/16 03:51:36;;;;;;;111.00;34.35;;;;;;;;;;5052204;28;20127;-69
2022/01/16 03:54:02;;;;;;;119.78;34.40;;;;;;;;;;5044307;28;20037;-69
2022/01/16 03:56:28;;;;;;;102.72;32.85;;;;;;;;;;5052254;28;20037;-69
2022/01/16 03:58:54;;;;;;;106.60;32.35;;;;;;;;;;5052172;28;20043;-69
2022/01/16 04:01:20;;;;;;;117.18;35.67;;;;;;;;;;5052139;28;20038;-69
2022/01/16 04:03:46;;;;;;;106.97;34.38;;;;;;;;;;5050478;28;20091;-69
2022/01/16 04:06:13;;;;;;;109.88;32.47;;;;;;;;;;5052133;28;20107;-69
2022/01/16 04:08:39;;;;;;;107.93;32.03;;;;;;;;;;5051937;28;20399;-69
2022/01/16 04:11:05;;;;;;;109.63;34.13;;;;;;;;;;5052691;28;20037;-70
2022/01/16 04:13:32;;;;;;;111.57;32.83;;;;;;;;;;5036431;28;20033;-70
2022/01/16 04:15:58;;;;;;;110.95;33.55;;;;;;;;;;5048193;28;20041;-69
2022/01/16 04:18:24;;;;;;;107.00;34.95;;;;;;;;;;5052128;28;20106;-69
2022/01/16 04:20:50;;;;;;;102.53;32.80;;;;;;;;;;5047162;28;20036;-70
2022/01/16 04:23:16;;;;;;;114.70;32.78;;;;;;;;;;5048590;28;20052;-70
2022/01/16 04:25:42;;;;;;;111.03;35.20;;;;;;;;;;5051274;28;20041;-69
2022/01/16 04:28:08;;;;;;;119.28;34.47;;;;;;;;;;5052376;28;20068;-69
2022/01/16 04:30:34;;;;;;;103.32;33.25;;;;;;;;;;5054574;28;20086;-69
2022/01/16 04:33:00;;;;;;;110.25;33.00;;;;;;;;;;5039827;28;20044;-69
2022/01/16 04:35:26;;;;;;;108.43;33.58;;;;;;;;;;5035289;28;20033;-69
2022/01/16 04:37:52;;;;;;;106.72;32.47;;;;;;;;;;5043055;28;20125;-70
2022/01/16 04:40:18;;;;;;;100.88;32.53;;;;;;;;;;5052447;28;20116;-70
2022/01/16 04:45:29;;;;;;;119.82;35.80;;;;;;;;;;5036679;28;20039;-69
2022/01/16 04:47:55;;;;;;;111.05;30.80;;;;;;;;;;5051668;28;20119;-70
2022/01/16 04:50:22;;;;;;;111.72;33.03;;;;;;;;;;5048393;28;20041;-69
2022/01/16 04:52:48;;;;;;;115.40;35.28;;;;;;;;;;5040804;28;20135;-69
2022/01/16 04:55:15;;;;;;;111.05;34.30;;;;;;;;;;5048469;28;20066;-69
2022/01/16 04:57:41;;;;;;;115.38;35.17;;;;;;;;;;5051498;28;20110;-69
2022/01/16 05:00:13;;;;;;;114.28;33.65;;;;;;;;;;5050431;28;20086;-69
2022/01/16 05:02:39;;;;;;;105.40;33.50;;;;;;;;;;5047006;28;20407;-70
2022/01/16 05:05:05;;;;;;;117.07;35.55;;;;;;;;;;5043971;28;20051;-69
2022/01/16 05:07:31;;;;;;;119.05;35.60;;;;;;;;;;5050675;28;20044;-69
2022/01/16 05:09:57;;;;;;;104.07;34.03;;;;;;;;;;5046960;28;20026;-69
2022/01/16 05:12:32;;;;;;;107.28;34.15;;;;;;;;;;5048419;28;20037;-69
2022/01/16 05:17:43;;;;;;;111.32;34.33;;;;;;;;;;5051190;28;20426;-69
2022/01/16 05:20:09;;;;;;;101.63;32.25;;;;;;;;;;5050680;28;20037;-69
2022/01/16 05:22:36;;;;;;;106.63;34.17;;;;;;;;;;5050231;28;20107;-69
2022/01/16 05:25:03;;;;;;;110.20;34.90;;;;;;;;;;5050986;28;20040;-69
2022/01/16 05:27:29;;;;;;;113.63;34.85;;;;;;;;;;5049596;28;20069;-69
2022/01/16 05:29:55;;;;;;;107.50;32.75;;;;;;;;;;5046527;28;20069;-69
2022/01/16 05:32:20;;;;;;;103.15;32.95;;;;;;;;;;5048846;28;20033;-69
2022/01/16 05:34:46;;;;;;;109.57;35.65;;;;;;;;;;5034905;28;20150;-69
2022/01/16 05:37:12;;;;;;;107.25;33.97;;;;;;;;;;5043971;28;20100;-69
2022/01/16 05:39:40;;;;;;;106.72;36.67;;;;;;;;;;5046495;28;20048;-69
2022/01/16 05:42:07;;;;;;;113.25;35.72;;;;;;;;;;5042542;28;20038;-69
2022/01/16 05:44:33;;;;;;;103.70;33.70;;;;;;;;;;5031602;28;20037;-69
2022/01/16 05:47:02;;;;;;;107.75;36.35;;;;;;;;;;5046810;28;20041;-69
2022/01/16 05:49:28;;;;;;;103.05;34.92;;;;;;;;;;5049890;28;20494;-69
2022/01/16 05:51:54;;;;;;;103.72;34.25;;;;;;;;;;5044797;28;20041;-69
2022/01/16 05:54:20;;;;;;;107.13;33.50;;;;;;;;;;5050437;28;20044;-70
2022/01/16 05:56:46;;;;;;;109.07;34.83;;;;;;;;;;5050708;28;20041;-69
2022/01/16 05:59:12;;;;;;;100.65;34.17;;;;;;;;;;5050637;28;20122;-70
2022/01/16 06:01:38;;;;;;;113.20;36.28;;;;;;;;;;5049537;28;20098;-69
2022/01/16 06:04:04;;;;;;;114.35;35.63;;;;;;;;;;5046734;28;20045;-69
2022/01/16 06:06:30;;;;;;;115.30;36.78;;;;;;;;;;5050694;28;20116;-69
2022/01/16 06:08:56;;;;;;;104.50;34.92;;;;;;;;;;5050015;28;20163;-69
2022/01/16 06:11:22;;;;;;;106.00;35.97;;;;;;;;;;5044648;28;20038;-69
2022/01/16 06:13:48;;;;;;;111.57;36.92;;;;;;;;;;5032749;28;20061;-70
2022/01/16 06:16:14;;;;;;;107.78;34.40;;;;;;;;;;5047230;28;20094;-69
2022/01/16 06:18:40;;;;;;;107.38;34.45;;;;;;;;;;5034633;28;20228;-69
2022/01/16 06:21:06;;;;;;;108.00;32.03;;;;;;;;;;5043086;28;20102;-69
2022/01/16 06:23:32;;;;;;;114.85;37.13;;;;;;;;;;5043464;28;20045;-69
2022/01/16 06:25:58;;;;;;;110.80;35.90;;;;;;;;;;5040788;28;20038;-69
2022/01/16 06:28:25;;;;;;;116.15;35.85;;;;;;;;;;5038414;28;20120;-69
2022/01/16 06:30:51;;;;;;;109.10;35.88;;;;;;;;;;5039717;28;20448;-69
2022/01/16 06:33:17;;;;;;;113.13;37.17;;;;;;;;;;5048453;28;20029;-70
2022/01/16 06:35:43;;;;;;;113.80;34.60;;;;;;;;;;5047829;28;20045;-69
2022/01/16 06:38:09;;;;;;;113.30;34.88;;;;;;;;;;5048729;28;20069;-69
2022/01/16 06:40:35;;;;;;;122.78;36.47;;;;;;;;;;5048705;28;20090;-69
2022/01/16 06:43:01;;;;;;;119.05;37.83;;;;;;;;;;5049432;28;20038;-70
2022/01/16 06:45:28;;;;;;;111.93;34.25;;;;;;;;;;5043486;28;20048;-69
2022/01/16 06:47:54;;;;;;;118.63;36.50;;;;;;;;;;5040508;28;20080;-70
2022/01/16 06:50:20;;;;;;;120.97;37.13;;;;;;;;;;5046911;28;20064;-70
2022/01/16 06:52:46;;;;;;;116.72;35.97;;;;;;;;;;5045052;28;20079;-70
2022/01/16 06:55:12;;;;;;;110.97;34.25;;;;;;;;;;5042582;28;20037;-69
2022/01/16 06:57:38;;;;;;;114.05;34.22;;;;;;;;;;5072848;22;20079;-68
2022/01/16 07:00:09;;;;;;;119.97;37.10;;;;;;;;;;5109639;28;20032;-68
2022/01/16 07:02:35;;;;;;;106.35;34.22;;;;;;;;;;5107566;27;20056;-69
2022/01/16 07:05:02;;;;;;;120.00;36.63;;;;;;;;;;5100722;28;20062;-68
2022/01/16 07:07:28;;;;;;;115.03;35.85;;;;;;;;;;5108813;28;20119;-68
2022/01/16 07:09:54;;;;;;;123.47;38.13;;;;;;;;;;5096467;28;20093;-68
2022/01/16 07:12:20;;;;;;;123.85;36.60;;;;;;;;;;5100250;28;20071;-68
2022/01/16 07:14:47;;;;;;;123.50;36.00;;;;;;;;;;5098838;28;20039;-68
2022/01/16 07:17:14;;;;;;;122.80;35.70;;;;;;;;;;5087698;28;20055;-68
2022/01/16 07:19:40;;;;;;;117.30;36.00;;;;;;;;;;5088806;28;20036;-68
2022/01/16 07:22:06;;;;;;;109.38;33.40;;;;;;;;;;5096459;28;20032;-68
2022/01/16 07:24:32;;;;;;;123.28;33.58;;;;;;;;;;5090432;28;20172;-68
2022/01/16 07:27:00;;;;;;;119.45;35.13;;;;;;;;;;5089150;28;20028;-68
2022/01/16 07:29:26;;;;;;;110.50;35.75;;;;;;;;;;5094253;28;20051;-68
2022/01/16 07:31:52;;;;;;;113.70;34.35;;;;;;;;;;5095074;28;20536;-67
2022/01/16 07:34:18;;;;;;;119.00;36.03;;;;;;;;;;5092567;28;20129;-68
2022/01/16 07:36:44;;;;;;;112.60;35.95;;;;;;;;;;5093956;28;20129;-69
2022/01/16 07:39:10;;;;;;;114.28;34.80;;;;;;;;;;5090338;28;20040;-68
2022/01/16 07:41:36;;;;;;;121.20;36.88;;;;;;;;;;5087821;28;20114;-68
2022/01/16 07:44:02;;;;;;;123.28;37.72;;;;;;;;;;5093323;28;20390;-68
2022/01/16 07:46:28;;;;;;;121.35;35.75;;;;;;;;;;5091288;28;20040;-69
2022/01/16 07:48:54;;;;;;;109.53;35.08;;;;;;;;;;5108738;27;20123;-68
2022/01/16 07:51:20;;;;;;;116.05;35.78;;;;;;;;;;5097203;28;20440;-68
2022/01/16 07:53:47;;;;;;;110.22;35.35;;;;;;;;;;5092255;28;20039;-68
2022/01/16 07:56:13;;;;;;;116.43;35.95;;;;;;;;;;5101156;28;20055;-68
2022/01/16 07:58:39;;;;;;;121.43;38.25;;;;;;;;;;5098170;28;20047;-68
2022/01/16 08:01:05;;;;;;;116.18;34.95;;;;;;;;;;5095958;28;20557;-68
2022/01/16 08:03:31;;;;;;;114.93;35.67;;;;;;;;;;5086591;28;20686;-69
2022/01/16 08:05:57;;;;;;;113.75;34.90;;;;;;;;;;5084393;28;20040;-68
2022/01/16 08:08:23;;;;;;;116.70;36.08;;;;;;;;;;5083483;28;20035;-68
2022/01/16 08:10:49;;;;;;;113.38;36.75;;;;;;;;;;5088057;28;20437;-68
2022/01/16 08:13:15;;;;;;;123.95;38.53;;;;;;;;;;5091440;28;20101;-68
2022/01/16 08:15:43;;;;;;;119.03;37.85;;;;;;;;;;5088195;28;20063;-68
2022/01/16 08:18:09;;;;;;;112.22;36.60;;;;;;;;;;5091594;28;20039;-68
2022/01/16 08:20:35;;;;;;;110.38;35.10;;;;;;;;;;5089332;28;20040;-68
2022/01/16 08:23:01;;;;;;;115.57;37.15;;;;;;;;;;5080211;28;20036;-68
2022/01/16 08:25:27;;;;;;;118.18;37.30;;;;;;;;;;5079555;28;20097;-68
2022/01/16 08:27:53;;;;;;;116.97;36.53;;;;;;;;;;5090617;28;20122;-68
2022/01/16 08:30:19;;;;;;;103.10;35.08;;;;;;;;;;5092991;28;20058;-68
2022/01/16 08:32:45;;;;;;;111.22;37.15;;;;;;;;;;5094102;28;20044;-68
2022/01/16 08:35:13;;;;;;;110.15;37.42;;;;;;;;;;5091696;28;20036;-68
2022/01/16 08:37:39;;;;;;;114.70;37.63;;;;;;;;;;5092159;28;20032;-68
2022/01/16 08:40:05;;;;;;;111.88;36.88;;;;;;;;;;5089409;28;20043;-68
2022/01/16 08:42:31;;;;;;;111.43;36.50;;;;;;;;;;5083280;28;20115;-68
2022/01/16 08:44:57;;;;;;;113.57;37.03;;;;;;;;;;5092083;28;20120;-68
2022/01/16 08:47:23;;;;;;;116.88;36.97;;;;;;;;;;5092173;28;20390;-68
2022/01/16 08:49:49;;;;;;;112.18;36.85;;;;;;;;;;5090725;28;20036;-68
2022/01/16 08:52:17;;;;;;;90.32;31.42;;;;;;;;;;5083081;28;20115;-68
2022/01/16 08:54:43;;;;;;;110.70;38.70;;;;;;;;;;5091836;28;20488;-68
2022/01/16 08:57:09;;;;;;;107.20;36.55;;;;;;;;;;5091297;28;20047;-68
2022/01/16 08:59:35;;;;;;;109.20;35.83;;;;;;;;;;5089688;28;20493;-68
2022/01/16 09:02:01;;;;;;;111.07;37.90;;;;;;;;;;5095303;28;20036;-68
2022/01/16 09:04:27;;;;;;;108.38;38.63;;;;;;;;;;5091643;28;20073;-68
2022/01/16 09:06:53;;;;;;;116.32;37.67;;;;;;;;;;5092016;28;20044;-67
2022/01/16 09:09:19;;;;;;;103.63;35.53;;;;;;;;;;5091732;28;20097;-68
2022/01/16 09:11:45;;;;;;;106.13;37.15;;;;;;;;;;5092865;28;20078;-68
2022/01/16 09:14:11;;;;;;;105.38;35.95;;;;;;;;;;5091618;28;20040;-68
2022/01/16 09:16:37;;;;;;;108.50;36.75;;;;;;;;;;5091662;28;20101;-68
2022/01/16 09:19:03;;;;;;;97.53;35.40;;;;;;;;;;5092152;28;20047;-67
2022/01/16 09:21:29;;;;;;;101.35;35.67;;;;;;;;;;5094331;28;20032;-68
2022/01/16 09:23:55;;;;;;;113.03;37.55;;;;;;;;;;5091594;28;20501;-67
2022/01/16 09:26:21;;;;;;;99.18;34.08;;;;;;;;;;5091515;28;20044;-68
2022/01/16 09:28:47;;;;;;;100.22;35.22;;;;;;;;;;5090573;28;20401;-68
2022/01/16 09:31:13;;;;;;;98.00;36.20;;;;;;;;;;5093829;28;20161;-68
2022/01/16 09:33:40;;;;;;;101.80;35.45;;;;;;;;;;5091438;28;20039;-68
2022/01/16 09:36:07;;;;;;;98.72;34.78;;;;;;;;;;5090361;28;20083;-68
2022/01/16 09:38:33;;;;;;;100.95;35.95;;;;;;;;;;5090388;28;20055;-68
2022/01/16 09:40:59;;;;;;;91.65;34.58;;;;;;;;;;5091191;28;20032;-68
2022/01/16 09:43:25;;;;;;;106.43;36.45;;;;;;;;;;5086796;28;20064;-68
2022/01/16 09:45:53;;;;;;;92.65;35.50;;;;;;;;;;5070903;28;20044;-68
2022/01/16 09:48:19;;;;;;;94.13;34.45;;;;;;;;;;5071515;28;20087;-68
2022/01/16 09:50:45;;;;;;;98.45;35.88;;;;;;;;;;5083673;28;20097;-68
2022/01/16 09:53:12;;;;;;;85.03;33.40;;;;;;;;;;5085228;28;20036;-68
2022/01/16 09:55:38;;;;;;;91.35;34.35;;;;;;;;;;5091396;28;20089;-68
2022/01/16 09:58:04;;;;;;;78.13;30.13;;;;;;;;;;5090271;28;20044;-68
2022/01/16 10:00:31;;;;;;;84.90;33.90;;;;;;;;;;5093203;28;20040;-68
2022/01/16 10:02:57;;;;;;;83.25;32.28;;;;;;;;;;5091611;28;20051;-68
2022/01/16 10:05:35;;;;;;;93.05;36.05;;;;;;;;;;5091173;28;20408;-68
2022/01/16 10:08:01;;;;;;;86.65;33.33;;;;;;;;;;5092582;28;20070;-68
2022/01/16 10:10:29;;;;;;;96.25;35.35;;;;;;;;;;5096765;28;20523;-68
2022/01/16 10:13:03;;;;;;;93.53;37.60;;;;;;;;;;5090689;28;20035;-68
2022/01/16 10:15:29;;;;;;;83.22;33.75;;;;;;;;;;5091131;28;20566;-68
2022/01/16 10:17:56;;;;;;;89.80;34.63;;;;;;;;;;5094910;28;20036;-68
2022/01/16 10:20:23;;;;;;;91.07;35.78;;;;;;;;;;5095244;28;20115;-67
2022/01/16 10:22:50;;;;;;;93.80;35.63;;;;;;;;;;5094850;28;20043;-68
2022/01/16 10:25:17;;;;;;;91.68;33.72;;;;;;;;;;5094772;28;20051;-68
2022/01/16 10:27:44;;;;;;;79.65;33.17;;;;;;;;;;5093585;28;20048;-68
2022/01/16 10:30:14;;;;;;;78.63;34.05;;;;;;;;;;5093946;28;20032;-68
2022/01/16 10:32:41;;;;;;;83.30;34.38;;;;;;;;;;5096996;28;20122;-68
2022/01/16 10:35:17;;;;;;;83.82;33.45;;;;;;;;;;5094574;28;20048;-68
2022/01/16 10:37:44;;;;;;;89.10;33.58;;;;;;;;;;5093418;28;20040;-68
2022/01/16 10:40:14;;;;;;;76.30;30.65;;;;;;;;;;5093846;28;20042;-68
2022/01/16 10:42:40;;;;;;;71.30;29.88;;;;;;;;;;5097028;28;20048;-68
2022/01/16 10:45:07;;;;;;;70.10;31.33;;;;;;;;;;5092566;28;20040;-68
2022/01/16 10:47:34;;;;;;;78.00;33.28;;;;;;;;;;5094246;28;20068;-68
2022/01/16 10:50:00;;;;;;;75.90;31.83;;;;;;;;;;5093270;28;20032;-68
2022/01/16 10:52:26;;;;;;;74.80;33.58;;;;;;;;;;5098168;28;20420;-68
2022/01/16 10:54:52;;;;;;;76.43;31.38;;;;;;;;;;5075765;28;20425;-68
2022/01/16 10:57:19;;;;;;;70.00;30.90;;;;;;;;;;5094176;28;20036;-68
2022/01/16 10:59:45;;;;;;;72.15;30.23;;;;;;;;;;5093233;28;20067;-68
2022/01/16 11:02:12;;;;;;;79.53;31.08;;;;;;;;;;5097761;28;20504;-68
2022/01/16 11:04:38;;;;;;;66.43;30.20;;;;;;;;;;5093597;28;20245;-68
2022/01/16 11:07:05;;;;;;;70.35;28.75;;;;;;;;;;5093987;28;20043;-68
2022/01/16 11:09:31;;;;;;;63.13;28.48;;;;;;;;;;5093344;28;20130;-68
2022/01/16 11:11:59;;;;;;;64.82;28.70;;;;;;;;;;5097797;28;20036;-68
2022/01/16 11:14:25;;;;;;;69.00;28.77;;;;;;;;;;5093667;28;20047;-68
2022/01/16 11:16:51;;;;;;;63.20;27.92;;;;;;;;;;5092773;28;20370;-68
2022/01/16 11:19:21;;;;;;;66.03;28.02;;;;;;;;;;5091737;28;20051;-68
2022/01/16 11:21:51;;;;;;;65.25;27.80;;;;;;;;;;5097352;28;20459;-68
2022/01/16 11:26:43;;;;;;;64.47;27.55;;;;;;;;;;5093463;28;20048;-68
2022/01/16 11:29:09;;;;;;;62.15;27.85;;;;;;;;;;5093827;28;20032;-68
2022/01/16 11:31:35;;;;;;;59.72;28.02;;;;;;;;;;5096035;28;20325;-68
2022/01/16 11:34:01;;;;;;;63.45;27.52;;;;;;;;;;5092990;28;20034;-68
2022/01/16 11:36:28;;;;;;;64.90;27.80;;;;;;;;;;5093238;28;20048;-68
2022/01/16 11:38:54;;;;;;;61.35;28.08;;;;;;;;;;5093666;28;20486;-68
2022/01/16 11:41:25;;;;;;;61.30;28.30;;;;;;;;;;5095922;28;20051;-68
2022/01/16 11:43:52;;;;;;;51.03;24.58;;;;;;;;;;5092900;28;20071;-68
2022/01/16 11:46:19;;;;;;;46.78;23.58;;;;;;;;;;5093435;28;20047;-68
2022/01/16 11:48:51;;;;;;;49.55;23.35;;;;;;;;;;5092187;28;20040;-67
2022/01/16 11:51:35;;;;;;;39.17;19.73;;;;;;;;;;5095674;28;20036;-68
2022/01/16 11:54:04;;;;;;;49.65;20.10;;;;;;;;;;5083754;28;20040;-68
2022/01/16 11:56:42;;;;;;;40.67;18.45;;;;;;;;;;5093110;28;20036;-68
2022/01/16 11:59:12;;;;;;;30.90;16.17;;;;;;;;;;5092707;28;20521;-68
2022/01/16 12:01:44;;;;;;;30.33;15.15;;;;;;;;;;5095840;28;20032;-68
2022/01/16 12:04:45;;;;;;;30.83;15.13;;;;;;;;;;5092746;28;20047;-68
2022/01/16 12:07:11;;;;;;;33.55;15.25;;;;;;;;;;5092853;28;20040;-68
2022/01/16 12:10:20;;;;;;;30.63;14.50;;;;;;;;;;5091706;28;20443;-68
2022/01/16 12:12:26;;;;;;;26.45;14.05;;;;;;;;;;5082441;28;20047;-68
2022/01/16 12:14:53;;;;;;;33.03;13.90;;;;;;;;;;5091104;28;20036;-68
2022/01/16 12:17:39;;;;;;;28.58;13.55;;;;;;;;;;5091716;28;20055;-68
2022/01/16 12:20:17;;;;;;;22.98;12.35;;;;;;;;;;5091422;28;20456;-68
2022/01/16 12:22:43;;;;;;;27.40;13.30;;;;;;;;;;5094569;28;20087;-68
2022/01/16 12:25:19;;;;;;;28.10;12.98;;;;;;;;;;5092047;28;20051;-68
2022/01/16 12:27:46;;;;;;;29.70;13.57;;;;;;;;;;5091413;28;20573;-68
2022/01/16 12:30:31;;;;;;;26.38;12.38;;;;;;;;;;5092416;28;20036;-68
2022/01/16 12:33:09;;;;;;;28.80;11.43;;;;;;;;;;5091484;28;20032;-68
2022/01/16 12:35:50;;;;;;;18.98;12.00;;;;;;;;;;5079455;28;20043;-68
2022/01/16 12:38:20;;;;;;;25.58;12.43;;;;;;;;;;5092478;28;20213;-68
2022/01/16 12:41:06;;;;;;;21.80;10.82;;;;;;;;;;5094926;28;20086;-68
2022/01/16 12:43:40;;;;;;;25.95;12.18;;;;;;;;;;5077701;28;20040;-68
2022/01/16 12:46:07;;;;;;;22.00;12.93;;;;;;;;;;5091359;28;20040;-68
2022/01/16 12:48:38;;;;;;;27.88;13.10;;;;;;;;;;5092216;28;20397;-68
2022/01/16 12:51:06;;;;;;;25.15;13.45;;;;;;;;;;5093534;28;20032;-68
2022/01/16 12:54:02;;;;;;;28.05;13.00;;;;;;;;;;5091623;28;20044;-68
2022/01/16 12:56:33;;;;;;;26.63;12.73;;;;;;;;;;5082845;28;20528;-68
2022/01/16 12:58:59;;;;;;;;;;;;;;;;;;5091995;22;20127;-70
2022/01/16 13:01:26;;;;;;;24.27;12.15;;;;;;;;;;5073004;28;19993;-69
2022/01/16 13:03:53;;;;;;;26.20;12.32;;;;;;;;;;5060475;28;20044;-70
2022/01/16 13:06:29;;;;;;;22.92;12.07;;;;;;;;;;5071524;28;20040;-70
2022/01/16 13:08:58;;;;;;;22.05;12.23;;;;;;;;;;5071769;28;20620;-69
2022/01/16 13:11:25;;;;;;;25.23;12.20;;;;;;;;;;5066609;28;20036;-69
2022/01/16 13:13:51;;;;;;;28.85;11.60;;;;;;;;;;5071412;28;20121;-69
2022/01/16 13:16:21;;;;;;;21.40;10.82;;;;;;;;;;5071005;28;20040;-69
2022/01/16 13:18:59;;;;;;;23.13;11.18;;;;;;;;;;5071647;28;20397;-69
2022/01/16 13:21:33;;;;;;;21.80;10.93;;;;;;;;;;5066246;28;20043;-70
2022/01/16 13:23:58;;;;;;;25.90;11.85;;;;;;;;;;5060028;28;20040;-70
2022/01/16 13:26:28;;;;;;;24.20;10.88;;;;;;;;;;5070858;28;20044;-70
2022/01/16 13:29:01;;;;;;;21.75;11.95;;;;;;;;;;5071772;28;20041;-70
2022/01/16 13:31:27;;;;;;;22.50;11.52;;;;;;;;;;5065904;28;20044;-70
2022/01/16 13:34:09;;;;;;;21.98;10.88;;;;;;;;;;5071312;28;20036;-70
2022/01/16 13:36:35;;;;;;;22.55;11.32;;;;;;;;;;5071059;28;20170;-70
2022/01/16 13:39:01;;;;;;;24.73;11.77;;;;;;;;;;5071414;28;20133;-70
2022/01/16 13:41:27;;;;;;;24.98;12.10;;;;;;;;;;5069299;28;20477;-70
2022/01/16 13:43:53;;;;;;;23.02;10.65;;;;;;;;;;5072815;28;20090;-70
2022/01/16 13:46:19;;;;;;;20.30;11.20;;;;;;;;;;5073157;28;20437;-70
2022/01/16 13:48:47;;;;;;;26.75;11.23;;;;;;;;;;5073310;28;20037;-69
2022/01/16 13:51:13;;;;;;;22.60;11.27;;;;;;;;;;5069968;28;20032;-70
2022/01/16 13:53:42;;;;;;;26.80;11.18;;;;;;;;;;5075290;28;20056;-69
2022/01/16 13:56:13;;;;;;;22.67;11.25;;;;;;;;;;5074974;28;20040;-70
2022/01/16 13:58:43;;;;;;;22.98;11.38;;;;;;;;;;5075250;28;20051;-70
2022/01/16 14:01:13;;;;;;;23.10;11.73;;;;;;;;;;5069680;28;20036;-70
2022/01/16 14:03:59;;;;;;;20.88;11.68;;;;;;;;;;5073604;28;20044;-69
2022/01/16 14:06:28;;;;;;;24.50;12.43;;;;;;;;;;5067343;28;20387;-69
2022/01/16 14:09:04;;;;;;;24.48;12.38;;;;;;;;;;5055198;28;20053;-69
2022/01/16 14:11:37;;;;;;;19.65;11.40;;;;;;;;;;5067794;28;20101;-70
2022/01/16 14:14:05;;;;;;;26.05;13.98;;;;;;;;;;5061666;28;20040;-70
2022/01/16 14:17:03;;;;;;;22.92;12.88;;;;;;;;;;5074700;28;20044;-69
2022/01/16 14:22:06;;;;;;;30.90;14.77;;;;;;;;;;5067579;28;20040;-69
2022/01/16 14:24:34;;;;;;;31.02;15.55;;;;;;;;;;5074367;28;20043;-69
2022/01/16 14:27:05;;;;;;;26.77;14.80;;;;;;;;;;5074279;28;20564;-69
2022/01/16 14:29:31;;;;;;;29.35;14.95;;;;;;;;;;5073524;28;20032;-70
2022/01/16 14:31:58;;;;;;;28.23;15.35;;;;;;;;;;5069983;28;20028;-69
2022/01/16 14:34:25;;;;;;;31.65;14.90;;;;;;;;;;5074326;28;20059;-70
2022/01/16 14:36:51;;;;;;;31.63;16.15;;;;;;;;;;5074197;28;20043;-69
2022/01/16 14:39:17;;;;;;;27.50;15.00;;;;;;;;;;5074158;28;20101;-70
2022/01/16 14:41:49;;;;;;;30.35;14.98;;;;;;;;;;5068492;28;20059;-69
2022/01/16 14:44:16;;;;;;;34.60;16.33;;;;;;;;;;5074043;28;20046;-69
2022/01/16 14:46:42;;;;;;;34.78;16.42;;;;;;;;;;5069277;28;20041;-69
2022/01/16 14:49:08;;;;;;;39.33;16.67;;;;;;;;;;5069480;28;20037;-69
2022/01/16 14:51:34;;;;;;;35.65;16.98;;;;;;;;;;5067387;28;20032;-69
2022/01/16 14:54:00;;;;;;;36.50;16.75;;;;;;;;;;5072997;28;20052;-69
2022/01/16 14:56:26;;;;;;;39.25;17.70;;;;;;;;;;5073122;28;20379;-69